Time;durP1;ratioP1;P1;durP2;ratioP2;P2;SDS_P1;SDS_P2;PMS_P1;PMS_P2;Temp;Humidity;BMP_temperature;BMP_pressure;BME280_temperature;BME280_humidity;BME280_pressure;Samples;Min_cycle;Max_cycle;Signal;HPM_P1;HPM_P2
2022/09/08 00:00:08;;;;;;;2.38;1.33;;;21.60;52.20;;;;;;5000692;28;20053;-58
2022/09/08 00:02:36;;;;;;;4.00;1.23;;;21.70;52.40;;;;;;5002532;28;20062;-61
2022/09/08 00:05:04;;;;;;;1.88;1.50;;;21.60;52.40;;;;;;5001588;28;20413;-60
2022/09/08 00:07:32;;;;;;;2.90;1.55;;;21.60;52.30;;;;;;5002633;28;20054;-61
2022/09/08 00:10:01;;;;;;;2.20;1.42;;;21.60;52.40;;;;;;5000193;28;20058;-58
2022/09/08 00:12:29;;;;;;;1.85;1.40;;;21.60;52.40;;;;;;4999604;28;20597;-61
2022/09/08 00:14:56;;;;;;;3.08;1.30;;;21.60;52.50;;;;;;5002998;28;20053;-61
2022/09/08 00:17:26;;;;;;;3.60;1.30;;;21.60;52.50;;;;;;5001625;28;20433;-60
2022/09/08 00:19:53;;;;;;;3.28;1.45;;;21.60;52.60;;;;;;5000913;28;20056;-61
2022/09/08 00:22:20;;;;;;;3.40;1.25;;;21.60;53.10;;;;;;4997220;28;20398;-61
2022/09/08 00:24:48;;;;;;;2.53;1.40;;;21.60;52.60;;;;;;5001571;28;20058;-61
2022/09/08 00:27:15;;;;;;;2.55;1.50;;;21.60;52.60;;;;;;5002027;28;20413;-57
2022/09/08 00:29:42;;;;;;;2.78;1.50;;;21.60;52.70;;;;;;5001376;28;20054;-54
2022/09/08 00:32:10;;;;;;;2.25;1.10;;;21.60;52.70;;;;;;5000167;28;20053;-59
2022/09/08 00:34:38;;;;;;;3.47;1.33;;;21.60;52.60;;;;;;5002246;28;20050;-61
2022/09/08 00:37:05;;;;;;;2.10;1.40;;;21.60;52.60;;;;;;4999353;28;20061;-60
2022/09/08 00:39:33;;;;;;;3.83;1.73;;;21.60;52.60;;;;;;5002923;28;20062;-61
2022/09/08 00:42:00;;;;;;;3.92;1.58;;;21.60;52.60;;;;;;4998801;28;20053;-61
2022/09/08 00:44:40;;;;;;;5.65;2.00;;;21.60;52.50;;;;;;5001809;28;20065;-61
2022/09/08 00:47:15;;;;;;;3.00;1.50;;;21.60;52.50;;;;;;5000288;28;20401;-60
2022/09/08 00:49:46;;;;;;;2.47;1.40;;;21.60;52.60;;;;;;5000297;28;20493;-60
2022/09/08 00:52:14;;;;;;;3.72;1.90;;;21.50;52.40;;;;;;5000471;28;20062;-60
2022/09/08 00:54:43;;;;;;;4.78;1.70;;;21.60;52.40;;;;;;4999766;28;20056;-59
2022/09/08 00:57:10;;;;;;;2.45;1.35;;;21.50;52.40;;;;;;5001249;28;20607;-60
2022/09/08 00:59:37;;;;;;;3.83;1.65;;;21.50;52.40;;;;;;5000377;28;20065;-61
2022/09/08 01:02:21;;;;;;;3.10;1.40;;;21.50;52.40;;;;;;4997354;28;20062;-61
2022/09/08 01:04:53;;;;;;;1.60;1.30;;;21.50;52.50;;;;;;5000085;28;20059;-60
2022/09/08 01:13:10;;;;;;;5.20;2.00;;;21.50;52.50;;;;;;4997189;28;20053;-61
2022/09/08 01:15:37;;;;;;;2.72;1.55;;;21.50;52.50;;;;;;5001022;28;20061;-61
2022/09/08 01:18:04;;;;;;;1.67;1.30;;;21.50;52.60;;;;;;5002455;28;20402;-61
2022/09/08 01:20:40;;;;;;;3.08;1.30;;;21.50;52.60;;;;;;4996782;28;20050;-61
2022/09/08 01:23:42;;;;;;;2.72;1.50;;;21.50;52.60;;;;;;4995955;28;20045;-60
2022/09/08 01:26:36;;;;;;;3.65;1.50;;;21.50;52.60;;;;;;4969037;28;20529;-57
2022/09/08 01:29:07;;;;;;;2.90;1.45;;;21.50;52.60;;;;;;4996347;28;20057;-61
2022/09/08 01:31:37;;;;;;;2.13;1.50;;;21.40;52.60;;;;;;4998170;28;20062;-59
2022/09/08 01:34:09;;;;;;;2.75;1.48;;;21.50;52.70;;;;;;5001810;28;20070;-60
2022/09/08 01:36:37;;;;;;;2.88;1.45;;;21.50;52.70;;;;;;4998404;28;20059;-61
2022/09/08 01:39:04;;;;;;;2.60;1.40;;;21.50;52.70;;;;;;4998449;28;20073;-61
2022/09/08 01:41:31;;;;;;;1.40;1.15;;;21.40;52.70;;;;;;4999678;28;20671;-61
2022/09/08 01:43:59;;;;;;;2.80;1.40;;;21.40;52.70;;;;;;5001530;28;20046;-61
2022/09/08 01:46:29;;;;;;;4.45;1.50;;;21.50;52.70;;;;;;5000228;28;20405;-61
2022/09/08 01:48:57;;;;;;;2.30;1.48;;;21.40;52.70;;;;;;4999838;28;20062;-60
2022/09/08 01:51:25;;;;;;;2.28;1.38;;;21.40;52.60;;;;;;4986724;28;20053;-61
2022/09/08 01:53:52;;;;;;;4.22;1.50;;;21.40;52.60;;;;;;4997874;28;20058;-60
2022/09/08 01:56:20;;;;;;;2.47;1.15;;;21.40;53.10;;;;;;4997497;28;20510;-58
2022/09/08 01:58:47;;;;;;;2.35;1.40;;;21.40;52.50;;;;;;5001661;28;20057;-61
2022/09/08 02:01:15;;;;;;;1.98;1.13;;;21.40;52.50;;;;;;4994432;28;20064;-61
2022/09/08 02:03:44;;;;;;;2.85;1.42;;;21.40;52.50;;;;;;5004229;28;20057;-58
2022/09/08 02:06:11;;;;;;;6.07;1.48;;;21.40;52.40;;;;;;5002907;28;20063;-61
2022/09/08 02:08:38;;;;;;;2.50;1.17;;;21.40;52.40;;;;;;5003892;28;20120;-57
2022/09/08 02:11:06;;;;;;;3.38;1.55;;;21.40;52.40;;;;;;4998130;28;20437;-61
2022/09/08 02:13:33;;;;;;;2.20;1.40;;;21.40;52.40;;;;;;5002789;28;20050;-61
2022/09/08 02:16:02;;;;;;;3.25;1.58;;;21.40;52.50;;;;;;5003450;28;20053;-61
2022/09/08 02:18:31;;;;;;;2.45;1.25;;;21.40;52.50;;;;;;5003232;28;20050;-61
2022/09/08 02:21:06;;;;;;;4.18;1.20;;;21.40;52.50;;;;;;5001600;28;20478;-61
2022/09/08 02:23:33;;;;;;;1.95;1.23;;;21.40;52.40;;;;;;5001885;28;20065;-61
2022/09/08 02:26:00;;;;;;;7.20;1.85;;;21.40;52.40;;;;;;5003193;28;20065;-61
2022/09/08 02:28:28;;;;;;;1.95;1.20;;;21.40;52.40;;;;;;5001806;28;20053;-61
2022/09/08 02:30:58;;;;;;;4.22;1.60;;;21.40;52.40;;;;;;4997278;28;20489;-61
2022/09/08 02:33:26;;;;;;;2.22;1.40;;;21.40;52.50;;;;;;5003740;28;20069;-61
2022/09/08 02:35:54;;;;;;;2.72;1.30;;;21.40;52.50;;;;;;5002405;28;20449;-60
2022/09/08 02:38:23;;;;;;;2.83;1.42;;;21.40;52.50;;;;;;5003048;28;20385;-61
2022/09/08 02:40:50;;;;;;;1.95;1.23;;;21.40;52.50;;;;;;4997568;28;20053;-61
2022/09/08 02:43:18;;;;;;;8.57;1.55;;;21.40;52.50;;;;;;5003421;28;20056;-56
2022/09/08 02:45:46;;;;;;;4.28;1.50;;;21.40;52.60;;;;;;5002200;28;20262;-60
2022/09/08 02:48:13;;;;;;;3.70;1.15;;;21.40;52.60;;;;;;5005026;28;20057;-60
2022/09/08 02:50:41;;;;;;;2.97;1.38;;;21.40;52.90;;;;;;4995805;28;20045;-62
2022/09/08 02:53:09;;;;;;;1.73;1.40;;;21.40;52.90;;;;;;5001142;28;20065;-62
2022/09/08 02:55:42;;;;;;;2.30;1.40;;;21.40;52.90;;;;;;5000243;28;20061;-60
2022/09/08 02:58:10;;;;;;;2.33;1.67;;;21.30;53.30;;;;;;5002209;28;20054;-52
2022/09/08 03:00:38;;;;;;;5.28;1.50;;;21.40;53.20;;;;;;4997606;28;20060;-51
2022/09/08 03:03:06;;;;;;;2.40;1.15;;;21.40;53.40;;;;;;5002616;28;20406;-49
2022/09/08 03:05:34;;;;;;;8.57;1.30;;;21.30;53.40;;;;;;5001022;28;20045;-57
2022/09/08 03:08:03;;;;;;;4.25;1.50;;;21.30;53.60;;;;;;5000896;28;20046;-51
2022/09/08 03:10:30;;;;;;;2.28;1.17;;;21.40;53.80;;;;;;4998195;28;20482;-51
2022/09/08 03:13:00;;;;;;;2.67;1.58;;;21.30;53.80;;;;;;5000861;28;20061;-50
2022/09/08 03:15:29;;;;;;;2.22;1.27;;;21.30;54.00;;;;;;5000814;28;20056;-50
2022/09/08 03:17:57;;;;;;;2.90;1.80;;;21.30;54.10;;;;;;5001209;28;20065;-51
2022/09/08 03:20:25;;;;;;;5.45;1.70;;;21.30;54.40;;;;;;4996805;28;20062;-49
2022/09/08 03:22:52;;;;;;;1.95;1.20;;;21.30;54.50;;;;;;5003191;28;20056;-51
2022/09/08 03:25:20;;;;;;;3.53;1.58;;;21.30;54.60;;;;;;5003169;28;20053;-54
2022/09/08 03:27:48;;;;;;;4.40;1.70;;;21.30;54.90;;;;;;4999820;28;20065;-54
2022/09/08 03:30:19;;;;;;;7.18;2.00;;;21.20;55.30;;;;;;4997391;28;20057;-51
2022/09/08 03:32:50;;;;;;;3.20;1.80;;;21.20;55.40;;;;;;5002230;28;20065;-56
2022/09/08 03:35:19;;;;;;;2.05;1.40;;;21.20;55.40;;;;;;4999328;28;20057;-50
2022/09/08 03:37:46;;;;;;;2.08;1.40;;;21.20;55.40;;;;;;4999963;28;20057;-50
2022/09/08 03:40:16;;;;;;;2.53;1.40;;;21.20;55.30;;;;;;4996388;28;20065;-53
2022/09/08 03:42:45;;;;;;;3.67;1.52;;;21.20;55.50;;;;;;5001367;28;20049;-50
2022/09/08 03:45:14;;;;;;;3.70;1.55;;;21.20;55.50;;;;;;4999290;28;20062;-54
2022/09/08 03:47:43;;;;;;;1.88;1.40;;;21.20;55.50;;;;;;5003845;28;20272;-51
2022/09/08 03:50:11;;;;;;;4.05;2.00;;;21.10;55.50;;;;;;4997420;28;20505;-52
2022/09/08 03:52:39;;;;;;;3.65;1.75;;;21.10;55.60;;;;;;4997975;28;20046;-51
2022/09/08 03:55:08;;;;;;;2.17;1.60;;;21.10;55.60;;;;;;5001761;28;20064;-49
2022/09/08 03:57:37;;;;;;;2.58;1.75;;;21.10;55.70;;;;;;4998294;28;20157;-52
2022/09/08 04:00:08;;;;;;;2.85;1.90;;;21.10;55.80;;;;;;4995194;28;20391;-56
2022/09/08 04:02:35;;;;;;;3.08;1.77;;;21.10;55.90;;;;;;4996830;28;20394;-51
2022/09/08 04:05:04;;;;;;;2.53;1.60;;;21.10;55.90;;;;;;5000959;28;20065;-50
2022/09/08 04:07:34;;;;;;;3.10;1.67;;;21.10;56.00;;;;;;4999477;28;20061;-50
2022/09/08 04:10:02;;;;;;;2.72;1.60;;;21.10;55.90;;;;;;4990751;28;20382;-50
2022/09/08 04:12:30;;;;;;;5.50;2.30;;;21.00;55.90;;;;;;4997804;28;20058;-52
2022/09/08 04:14:57;;;;;;;2.53;1.63;;;21.10;56.00;;;;;;5001437;28;20058;-50
2022/09/08 04:17:25;;;;;;;5.95;1.83;;;21.00;56.00;;;;;;4993541;28;20506;-49
2022/09/08 04:19:52;;;;;;;4.45;1.52;;;21.00;56.20;;;;;;4997241;28;20060;-50
2022/09/08 04:22:22;;;;;;;2.50;2.05;;;21.00;56.20;;;;;;4999239;28;20085;-50
2022/09/08 04:24:49;;;;;;;2.40;1.65;;;21.00;56.40;;;;;;5003410;28;20058;-52
2022/09/08 04:27:18;;;;;;;2.95;1.63;;;21.00;56.50;;;;;;4999417;28;20494;-51
2022/09/08 04:29:45;;;;;;;3.50;2.00;;;21.00;56.60;;;;;;5001030;28;20053;-53
2022/09/08 04:32:13;;;;;;;3.28;1.90;;;21.00;56.60;;;;;;4997811;28;20137;-51
2022/09/08 04:34:40;;;;;;;2.17;1.50;;;20.90;56.60;;;;;;4995634;28;20054;-51
2022/09/08 04:37:07;;;;;;;3.25;2.08;;;20.90;56.60;;;;;;5000368;28;20057;-52
2022/09/08 04:39:36;;;;;;;3.15;2.05;;;20.90;56.70;;;;;;5002815;28;20493;-57
2022/09/08 04:42:03;;;;;;;14.82;7.93;;;20.90;56.70;;;;;;4996000;28;20065;-50
2022/09/08 04:44:31;;;;;;;5.82;3.92;;;20.90;56.70;;;;;;5002290;28;20072;-55
2022/09/08 04:46:58;;;;;;;9.32;4.93;;;20.90;56.80;;;;;;5001905;28;20493;-53
2022/09/08 04:49:25;;;;;;;5.43;3.08;;;20.90;56.80;;;;;;4998855;28;20050;-51
2022/09/08 04:51:54;;;;;;;2.85;2.13;;;20.90;56.90;;;;;;4996431;28;20053;-46
2022/09/08 04:54:22;;;;;;;5.43;2.22;;;20.90;56.90;;;;;;5000738;28;20054;-50
2022/09/08 04:56:51;;;;;;;3.13;2.00;;;20.90;56.90;;;;;;5000861;28;20057;-54
2022/09/08 04:59:18;;;;;;;4.70;2.70;;;20.90;57.10;;;;;;4997790;28;20054;-51
2022/09/08 05:01:45;;;;;;;3.10;2.22;;;20.90;57.30;;;;;;4996137;28;20061;-49
2022/09/08 05:04:13;;;;;;;4.95;2.20;;;20.80;57.20;;;;;;5002253;28;20053;-48
2022/09/08 05:06:40;;;;;;;4.10;2.20;;;20.80;57.20;;;;;;4999197;28;21943;-50
2022/09/08 05:09:07;;;;;;;3.97;2.65;;;20.80;57.20;;;;;;4998357;28;20057;-46
2022/09/08 05:11:36;;;;;;;17.50;8.50;;;20.80;57.20;;;;;;4997256;28;20065;-47
2022/09/08 05:14:06;;;;;;;9.52;5.15;;;20.80;57.30;;;;;;4999968;28;20049;-48
2022/09/08 05:16:34;;;;;;;4.38;2.83;;;20.80;57.30;;;;;;5000997;28;20485;-50
2022/09/08 05:19:04;;;;;;;4.85;2.50;;;20.80;57.40;;;;;;5002903;28;20489;-48
2022/09/08 05:21:33;;;;;;;5.20;2.50;;;20.80;57.40;;;;;;4995785;28;20061;-52
2022/09/08 05:24:02;;;;;;;3.78;2.08;;;20.80;57.50;;;;;;4999970;28;20052;-49
2022/09/08 05:26:30;;;;;;;6.43;2.40;;;20.80;57.50;;;;;;5005769;28;20088;-46
2022/09/08 05:28:57;;;;;;;3.67;1.85;;;20.80;57.50;;;;;;5004867;28;20046;-55
2022/09/08 05:31:29;;;;;;;4.18;2.38;;;20.80;57.60;;;;;;5003750;28;20054;-52
2022/09/08 05:33:57;;;;;;;4.22;2.20;;;20.80;57.70;;;;;;5005893;28;20490;-49
2022/09/08 05:36:26;;;;;;;5.70;2.15;;;20.70;57.60;;;;;;5002667;28;20142;-50
2022/09/08 05:38:54;;;;;;;6.03;2.38;;;20.70;57.70;;;;;;5006436;28;20042;-50
2022/09/08 05:41:22;;;;;;;3.55;2.00;;;20.70;57.70;;;;;;5002620;28;20053;-47
2022/09/08 05:43:52;;;;;;;3.25;2.05;;;20.70;57.80;;;;;;5006133;28;20054;-50
2022/09/08 05:46:19;;;;;;;3.40;2.17;;;20.70;57.90;;;;;;5005029;28;20053;-52
2022/09/08 05:48:48;;;;;;;5.65;2.30;;;20.70;57.80;;;;;;5004971;28;20436;-51
2022/09/08 05:51:18;;;;;;;3.53;2.30;;;20.70;57.90;;;;;;4993525;28;20049;-50
2022/09/08 05:53:46;;;;;;;4.25;2.45;;;20.70;58.00;;;;;;5005140;28;20058;-51
2022/09/08 05:56:18;;;;;;;3.22;2.05;;;20.70;57.90;;;;;;5004414;28;20057;-47
2022/09/08 05:58:50;;;;;;;4.88;2.33;;;20.70;58.00;;;;;;5003783;28;20050;-50
2022/09/08 06:01:17;;;;;;;6.85;2.00;;;20.70;58.60;;;;;;4999497;28;20066;-55
2022/09/08 06:03:44;;;;;;;2.50;1.80;;;20.70;58.10;;;;;;5000202;28;20062;-53
2022/09/08 06:06:14;;;;;;;2.65;1.85;;;20.70;58.20;;;;;;5001882;28;20065;-49
2022/09/08 06:08:42;;;;;;;5.15;2.58;;;20.70;58.30;;;;;;5004485;28;20053;-50
2022/09/08 06:11:10;;;;;;;3.33;1.80;;;20.70;58.40;;;;;;4998066;28;20050;-55
2022/09/08 06:13:39;;;;;;;4.60;1.92;;;20.70;58.40;;;;;;4999354;28;20076;-52
2022/09/08 06:16:08;;;;;;;3.88;1.90;;;20.70;58.40;;;;;;5002775;28;20053;-52
2022/09/08 06:18:37;;;;;;;3.15;2.83;;;20.70;58.50;;;;;;5004934;28;20073;-55
2022/09/08 06:21:06;;;;;;;9.65;3.00;;;20.70;58.60;;;;;;4997526;28;20053;-51
2022/09/08 06:23:35;;;;;;;2.88;1.83;;;20.70;58.60;;;;;;5004159;28;20050;-52
2022/09/08 06:26:28;;;;;;;4.72;1.80;;;20.70;58.60;;;;;;5004459;28;20894;-50
2022/09/08 06:29:03;;;;;;;3.35;1.90;;;20.70;58.80;;;;;;5003581;28;20057;-53
2022/09/08 06:31:33;;;;;;;2.20;1.25;;;20.70;58.80;;;;;;4994706;28;20382;-52
2022/09/08 06:34:04;;;;;;;2.45;1.00;;;20.70;58.80;;;;;;4998696;28;20500;-48
2022/09/08 06:36:37;;;;;;;2.35;1.20;;;20.70;58.80;;;;;;5005163;28;20058;-53
2022/09/08 06:39:14;;;;;;;2.85;1.10;;;20.70;59.00;;;;;;4996670;28;20490;-52
2022/09/08 06:41:47;;;;;;;1.80;1.00;;;20.70;59.00;;;;;;5000680;28;20058;-55
2022/09/08 06:44:20;;;;;;;1.80;1.15;;;20.70;59.10;;;;;;5002282;28;20061;-55
2022/09/08 06:46:48;;;;;;;2.40;1.30;;;20.70;59.10;;;;;;5003428;28;20054;-55
2022/09/08 06:49:15;;;;;;;2.20;1.05;;;20.70;59.20;;;;;;5001692;28;20076;-52
2022/09/08 06:51:49;;;;;;;1.90;1.00;;;20.70;59.20;;;;;;4998352;28;20058;-55
2022/09/08 06:54:28;;;;;;;1.48;0.80;;;20.70;59.30;;;;;;5000222;28;20069;-51
2022/09/08 06:57:07;;;;;;;1.42;0.88;;;20.70;59.30;;;;;;5000687;28;20568;-51
2022/09/08 06:59:47;;;;;;;2.03;0.82;;;20.70;59.40;;;;;;5003424;28;20049;-55
2022/09/08 07:02:38;;;;;;;1.10;0.73;;;20.70;59.50;;;;;;4996579;28;20072;-48
2022/09/08 07:05:17;;;;;;;3.17;0.88;;;20.70;59.50;;;;;;4991363;28;20062;-53
2022/09/08 07:07:51;;;;;;;2.80;1.42;;;20.70;59.50;;;;;;5003405;28;20058;-52
2022/09/08 07:10:25;;;;;;;3.78;0.90;;;20.70;59.60;;;;;;4995426;28;20639;-51
2022/09/08 07:12:59;;;;;;;2.55;1.13;;;20.70;59.60;;;;;;4999915;28;20046;-49
2022/09/08 07:15:41;;;;;;;2.22;0.80;;;20.70;59.70;;;;;;4986399;28;20072;-47
2022/09/08 07:18:17;;;;;;;2.25;1.05;;;20.70;59.70;;;;;;5000589;28;20046;-53
2022/09/08 07:20:45;;;;;;;1.88;1.13;;;20.80;59.80;;;;;;4999703;28;20057;-50
2022/09/08 07:23:17;;;;;;;1.48;1.10;;;20.80;59.80;;;;;;5001063;28;21056;-52
2022/09/08 07:25:54;;;;;;;1.15;0.98;;;20.80;59.90;;;;;;5001158;28;20054;-52
2022/09/08 07:28:24;;;;;;;2.38;1.45;;;20.80;60.00;;;;;;4998697;28;20069;-51
2022/09/08 07:30:55;;;;;;;2.83;1.55;;;20.80;60.00;;;;;;4997649;28;20377;-52
2022/09/08 07:33:25;;;;;;;2.10;1.50;;;20.90;60.30;;;;;;5000564;28;20054;-54
2022/09/08 07:36:07;;;;;;;3.90;1.38;;;20.80;60.20;;;;;;4994911;28;20489;-48
2022/09/08 07:38:40;;;;;;;3.60;1.60;;;20.90;60.30;;;;;;5000418;28;20062;-52
2022/09/08 07:41:14;;;;;;;5.38;1.40;;;20.90;60.10;;;;;;4994080;28;20073;-49
2022/09/08 07:43:41;;;;;;;1.40;1.25;;;20.90;60.10;;;;;;4999848;28;20069;-52
2022/09/08 07:46:29;;;;;;;2.10;1.20;;;21.00;60.00;;;;;;4999974;28;20056;-55
2022/09/08 07:49:03;;;;;;;1.77;1.05;;;21.00;60.30;;;;;;5000591;28;20069;-52
2022/09/08 07:51:38;;;;;;;3.85;1.25;;;21.00;60.00;;;;;;4995597;28;20061;-51
2022/09/08 07:54:20;;;;;;;2.30;1.20;;;21.00;60.00;;;;;;4997933;28;20060;-52
2022/09/08 07:56:58;;;;;;;2.78;1.30;;;21.00;60.10;;;;;;4997335;28;20839;-50
2022/09/08 07:59:32;;;;;;;2.95;1.35;;;21.00;60.10;;;;;;4998562;28;20057;-49
2022/09/08 08:02:09;;;;;;;2.63;1.08;;;21.10;60.20;;;;;;4993915;28;21197;-52
2022/09/08 08:04:54;;;;;;;1.48;1.10;;;21.10;60.30;;;;;;5002392;28;20083;-53
2022/09/08 08:07:29;;;;;;;4.80;1.33;;;21.10;60.40;;;;;;5003338;28;20068;-51
2022/09/08 08:10:03;;;;;;;3.25;1.15;;;21.10;60.10;;;;;;4997041;28;20053;-50
2022/09/08 08:12:38;;;;;;;2.55;1.38;;;21.20;60.20;;;;;;5000265;28;20058;-46
2022/09/08 08:15:14;;;;;;;1.88;1.00;;;21.20;60.40;;;;;;5001294;28;20057;-52
2022/09/08 08:17:46;;;;;;;2.92;0.95;;;21.20;60.40;;;;;;5003291;28;20505;-49
2022/09/08 08:20:24;;;;;;;2.35;1.30;;;21.30;60.20;;;;;;4995261;28;21004;-50
2022/09/08 08:23:24;;;;;;;2.92;0.80;;;21.30;60.30;;;;;;5003225;28;20062;-51
2022/09/08 08:25:59;;;;;;;1.20;0.68;;;21.30;60.00;;;;;;4999472;28;20429;-51
2022/09/08 08:28:31;;;;;;;1.08;0.90;;;21.30;59.60;;;;;;5002573;28;20497;-49
2022/09/08 08:31:13;;;;;;;2.20;0.95;;;21.40;59.60;;;;;;4992969;28;20548;-50
2022/09/08 08:33:44;;;;;;;3.58;1.05;;;21.40;59.80;;;;;;5001562;28;20050;-54
2022/09/08 08:36:15;;;;;;;2.60;1.00;;;21.40;59.60;;;;;;5001448;28;20057;-57
2022/09/08 08:38:46;;;;;;;1.98;0.73;;;21.40;59.50;;;;;;5000800;28;20129;-52
2022/09/08 08:41:20;;;;;;;2.75;0.98;;;21.40;59.60;;;;;;4993136;28;20045;-57
2022/09/08 08:44:28;;;;;;;3.28;1.33;;;21.50;59.80;;;;;;4997995;28;20058;-49
2022/09/08 08:47:23;;;;;;;1.65;0.90;;;21.50;59.80;;;;;;4920122;29;20044;-52
2022/09/08 08:50:25;;;;;;;0.82;0.70;;;21.50;60.00;;;;;;4919889;29;20066;-49
2022/09/08 08:53:12;;;;;;;3.15;0.98;;;21.60;59.80;;;;;;4992980;28;20413;-52
2022/09/08 08:55:50;;;;;;;1.35;0.70;;;21.60;60.90;;;;;;4994688;28;20065;-52
2022/09/08 08:58:46;;;;;;;0.57;0.57;;;21.60;59.80;;;;;;4994291;28;20054;-55
2022/09/08 09:01:30;;;;;;;1.70;0.95;;;21.70;59.60;;;;;;5002695;28;20121;-54
2022/09/08 09:04:19;;;;;;;3.60;0.63;;;21.70;59.60;;;;;;5009316;28;20057;-50
2022/09/08 09:07:22;;;;;;;4.80;0.60;;;21.80;59.20;;;;;;5009233;28;20477;-53
2022/09/08 09:10:09;;;;;;;1.17;0.52;;;21.80;59.00;;;;;;5001921;28;20493;-56
2022/09/08 09:12:51;;;;;;;1.55;0.90;;;21.80;58.30;;;;;;5004439;28;20062;-53
2022/09/08 09:15:45;;;;;;;3.03;0.93;;;21.80;58.70;;;;;;5006485;28;20053;-51
2022/09/08 09:18:45;;;;;;;2.90;0.93;;;21.80;58.50;;;;;;4998634;28;20286;-54
2022/09/08 09:21:21;;;;;;;4.85;1.30;;;21.70;58.70;;;;;;5002119;28;20053;-49
2022/09/08 09:23:59;;;;;;;3.83;1.40;;;21.70;59.20;;;;;;5006040;28;20061;-50
2022/09/08 09:26:30;;;;;;;4.25;1.83;;;21.60;59.60;;;;;;5005080;28;20068;-56
2022/09/08 09:29:10;;;;;;;5.53;1.35;;;21.60;59.40;;;;;;5006377;28;20057;-54
2022/09/08 09:32:14;;;;;;;2.47;1.48;;;21.50;58.90;;;;;;5003000;28;20057;-51
2022/09/08 09:35:06;;;;;;;2.10;1.27;;;21.40;58.90;;;;;;5000554;28;20508;-50
2022/09/08 09:38:15;;;;;;;2.78;1.50;;;21.40;59.30;;;;;;4970000;28;20060;-50
2022/09/08 09:41:18;;;;;;;5.22;1.83;;;21.40;59.20;;;;;;4951834;28;20059;-55
2022/09/08 09:44:07;;;;;;;2.92;1.63;;;21.40;59.60;;;;;;5004363;28;20065;-55
2022/09/08 09:47:07;;;;;;;4.00;1.65;;;21.30;60.00;;;;;;5006004;28;20057;-51
2022/09/08 09:50:04;;;;;;;2.80;1.75;;;21.30;59.90;;;;;;4988109;28;20054;-52
2022/09/08 09:52:40;;;;;;;4.53;1.30;;;21.30;60.00;;;;;;5001675;28;20076;-54
2022/09/08 09:55:23;;;;;;;4.70;1.88;;;21.30;60.50;;;;;;5005665;28;20054;-50
2022/09/08 09:58:18;;;;;;;3.38;1.27;;;21.30;61.20;;;;;;5007248;28;20061;-51
2022/09/08 10:00:54;;;;;;;;;;;21.30;60.10;;;;;;4999091;28;20053;-48
2022/09/08 10:04:03;;;;;;;2.30;0.85;;;21.30;59.40;;;;;;5008533;28;19929;-52
2022/09/08 10:06:58;;;;;;;1.60;0.80;;;21.40;59.50;;;;;;4961353;28;20062;-53
2022/09/08 10:10:04;;;;;;;2.92;0.95;;;21.40;60.10;;;;;;5004709;28;20060;-52
2022/09/08 10:13:12;;;;;;;1.95;0.70;;;21.40;58.30;;;;;;4999247;28;20041;-51
2022/09/08 10:16:14;;;;;;;1.42;0.77;;;21.50;58.60;;;;;;4998567;28;20046;-55
2022/09/08 10:19:14;;;;;;;2.55;0.60;;;21.50;57.60;;;;;;5001795;28;20057;-53
2022/09/08 10:22:24;;;;;;;4.97;0.75;;;21.50;57.00;;;;;;5001311;28;20046;-49
2022/09/08 10:25:37;;;;;;;2.55;0.63;;;21.60;56.80;;;;;;5004487;28;20061;-55
2022/09/08 10:28:56;;;;;;;1.60;0.50;;;21.60;56.90;;;;;;4929926;28;20060;-53
2022/09/08 10:32:16;;;;;;;1.13;0.40;;;21.70;57.10;;;;;;4997754;28;20058;-52
2022/09/08 10:35:08;;;;;;;2.55;0.40;;;21.80;55.80;;;;;;5004872;28;20061;-54
2022/09/08 10:38:19;;;;;;;2.00;0.63;;;21.90;54.90;;;;;;5002506;28;20058;-54
2022/09/08 10:41:10;;;;;;;1.95;0.52;;;21.90;54.90;;;;;;4940731;28;20062;-55
2022/09/08 10:44:22;;;;;;;1.75;0.50;;;22.00;54.60;;;;;;5000045;28;20489;-54
2022/09/08 10:47:30;;;;;;;1.77;0.40;;;22.00;54.40;;;;;;4981436;28;20133;-55
2022/09/08 10:50:19;;;;;;;2.78;0.50;;;22.10;54.20;;;;;;4983454;28;20062;-56
2022/09/08 10:53:22;;;;;;;1.50;0.40;;;22.10;53.30;;;;;;5003901;28;20062;-55
2022/09/08 10:56:01;;;;;;;1.38;0.50;;;22.10;52.90;;;;;;5001415;28;20065;-53
2022/09/08 10:59:00;;;;;;;1.77;0.50;;;22.10;52.80;;;;;;5002289;28;20422;-54
2022/09/08 11:01:54;;;;;;;1.00;0.30;;;22.10;53.00;;;;;;4994434;28;20049;-56
2022/09/08 11:04:34;;;;;;;;;;;22.10;52.90;;;;;;4994641;28;20057;-56
2022/09/08 11:07:21;;;;;;;2.28;0.60;;;22.20;53.30;;;;;;4996270;28;19925;-57
2022/09/08 11:09:57;;;;;;;0.88;0.30;;;22.20;52.90;;;;;;4995195;28;20059;-57
2022/09/08 11:12:44;;;;;;;1.65;0.50;;;22.20;52.80;;;;;;4992775;28;20053;-54
2022/09/08 11:15:57;;;;;;;1.52;0.50;;;22.30;53.10;;;;;;4994647;28;20064;-55
2022/09/08 11:18:42;;;;;;;2.65;0.32;;;22.30;52.80;;;;;;4994312;28;20061;-57
2022/09/08 11:21:20;;;;;;;1.70;0.25;;;22.30;52.70;;;;;;4993504;28;20050;-58
2022/09/08 11:24:00;;;;;;;2.35;0.60;;;22.40;52.70;;;;;;4992419;28;20074;-54
2022/09/08 11:26:40;;;;;;;1.98;0.40;;;22.40;52.10;;;;;;4990374;28;20049;-56
2022/09/08 11:29:10;;;;;;;2.58;0.40;;;22.50;51.90;;;;;;4989540;28;20058;-56
2022/09/08 11:31:46;;;;;;;3.22;0.52;;;22.50;51.90;;;;;;4995296;28;20041;-58
2022/09/08 11:34:28;;;;;;;3.92;0.80;;;22.50;51.70;;;;;;4992791;28;20064;-55
2022/09/08 11:37:29;;;;;;;2.55;0.65;;;22.60;52.20;;;;;;4996401;28;20052;-53
2022/09/08 11:40:11;;;;;;;1.20;0.40;;;22.60;52.80;;;;;;4995285;28;20054;-54
2022/09/08 11:43:14;;;;;;;1.95;0.40;;;22.70;52.80;;;;;;4973280;28;20501;-54
2022/09/08 11:45:56;;;;;;;1.02;0.45;;;22.70;52.80;;;;;;4986887;28;20482;-57
2022/09/08 11:48:52;;;;;;;3.70;0.80;;;22.70;53.10;;;;;;4994240;28;20079;-54
2022/09/08 11:51:35;;;;;;;1.25;0.32;;;22.70;53.40;;;;;;4988111;28;20060;-52
2022/09/08 11:54:18;;;;;;;1.75;0.45;;;22.80;53.10;;;;;;4994814;28;20053;-48
2022/09/08 11:57:20;;;;;;;1.90;0.40;;;22.80;52.40;;;;;;4989306;28;20085;-55
2022/09/08 12:00:03;;;;;;;2.60;0.40;;;22.80;52.20;;;;;;4993446;28;20061;-52
2022/09/08 12:02:50;;;;;;;1.33;0.35;;;22.80;52.10;;;;;;4973640;28;20046;-58
2022/09/08 12:05:25;;;;;;;1.40;0.22;;;22.80;51.80;;;;;;4977053;28;21125;-57
2022/09/08 12:08:17;;;;;;;1.23;0.30;;;22.80;51.30;;;;;;4981499;28;20054;-55
2022/09/08 12:11:07;;;;;;;2.25;0.32;;;22.80;50.80;;;;;;4976111;28;20081;-53
2022/09/08 12:13:46;;;;;;;0.40;0.30;;;22.80;50.80;;;;;;4977162;28;20414;-52
2022/09/08 12:16:35;;;;;;;1.58;0.45;;;22.80;50.50;;;;;;4982904;28;20077;-56
2022/09/08 12:19:29;;;;;;;1.23;0.38;;;22.80;50.50;;;;;;4978601;28;20053;-53
2022/09/08 12:22:16;;;;;;;0.35;0.20;;;22.80;50.80;;;;;;4966745;28;20442;-57
2022/09/08 12:25:19;;;;;;;1.30;0.43;;;22.70;50.80;;;;;;4981764;28;20410;-56
2022/09/08 12:28:01;;;;;;;4.05;0.50;;;22.80;50.60;;;;;;4965916;28;20395;-54
2022/09/08 12:30:34;;;;;;;2.33;0.40;;;22.80;50.80;;;;;;4977768;28;20054;-55
2022/09/08 12:33:49;;;;;;;2.17;0.35;;;22.70;50.70;;;;;;4977907;28;20046;-54
2022/09/08 12:36:25;;;;;;;4.25;0.32;;;22.70;50.50;;;;;;4920953;29;20051;-52
2022/09/08 12:39:16;;;;;;;1.35;0.32;;;22.80;50.70;;;;;;4922288;29;20060;-55
2022/09/08 12:42:09;;;;;;;3.22;0.10;;;22.70;50.50;;;;;;4964269;28;20062;-52
2022/09/08 12:44:56;;;;;;;3.25;0.40;;;22.80;50.60;;;;;;4980853;28;20050;-53
2022/09/08 12:47:34;;;;;;;1.00;0.30;;;22.80;50.20;;;;;;4984155;28;20502;-52
2022/09/08 12:50:20;;;;;;;0.55;0.10;;;22.80;50.50;;;;;;4978994;28;20061;-52
2022/09/08 12:53:02;;;;;;;1.58;0.30;;;22.90;50.00;;;;;;4982284;28;20414;-53
2022/09/08 12:55:37;;;;;;;5.05;0.30;;;22.90;49.70;;;;;;4982647;28;20054;-55
2022/09/08 12:58:06;;;;;;;0.73;0.20;;;22.90;49.90;;;;;;4981486;28;20589;-54
2022/09/08 13:00:38;;;;;;;1.80;0.40;;;23.00;49.90;;;;;;4985428;28;20056;-52
2022/09/08 13:03:26;;;;;;;1.13;0.43;;;22.90;49.80;;;;;;5001738;28;20421;-52
2022/09/08 13:06:15;;;;;;;2.38;0.28;;;22.90;49.60;;;;;;4999350;28;20060;-55
2022/09/08 13:08:56;;;;;;;1.30;0.40;;;22.90;49.00;;;;;;5003263;28;20058;-49
2022/09/08 13:11:55;;;;;;;0.75;0.20;;;22.90;48.50;;;;;;4998129;28;20061;-46
2022/09/08 13:14:39;;;;;;;1.52;0.40;;;22.80;48.50;;;;;;4995194;28;20062;-54
2022/09/08 13:17:14;;;;;;;0.10;0.10;;;22.70;48.90;;;;;;5001971;28;20498;-52
2022/09/08 13:20:01;;;;;;;0.32;0.15;;;22.60;50.00;;;;;;5002587;28;20487;-54
2022/09/08 13:22:33;;;;;;;0.68;0.32;;;22.60;50.10;;;;;;5002288;28;20057;-50
2022/09/08 13:25:10;;;;;;;1.10;0.20;;;22.60;50.10;;;;;;5001898;28;20046;-52
2022/09/08 13:27:51;;;;;;;0.40;0.30;;;22.60;50.10;;;;;;4999135;28;20058;-54
2022/09/08 13:30:20;;;;;;;1.30;0.43;;;22.60;50.10;;;;;;4997610;28;20054;-53
2022/09/08 13:33:03;;;;;;;0.50;0.20;;;22.60;50.10;;;;;;5000961;28;20046;-50
2022/09/08 13:35:53;;;;;;;1.65;0.40;;;22.70;50.00;;;;;;4991220;28;20536;-56
2022/09/08 13:38:35;;;;;;;1.48;0.22;;;22.70;49.60;;;;;;4986687;28;20857;-58
2022/09/08 13:41:15;;;;;;;0.65;0.17;;;22.70;49.30;;;;;;4985405;28;20510;-57
2022/09/08 13:44:02;;;;;;;2.33;0.60;;;22.80;49.40;;;;;;4987080;28;20058;-57